4XCWE LLHZ-LLHZ

Flight info

Callsign 4XCWE
Flight time 0h 1m
Altitude 800
Route CVFR
Aircraft C152/L-VD/A

Departure

Time 2026-04-27 13:18
Airport Herzliya Airport (LLHZ)

Arrival

Time 2026-04-27 13:20
Airport Herzliya Airport (LLHZ)
Time Latitude Longitude Altitude Speed Heading
2026-04-27 13:15 32.17881 34.83779 119 ft 0 kts 110°
2026-04-27 13:16 32.17889 34.83802 117 ft 5 kts 85°
2026-04-27 13:16 32.17897 34.83826 120 ft 6 kts 27°
2026-04-27 13:16 32.17923 34.83819 123 ft 4 kts 269°
2026-04-27 13:17 32.17943 34.83752 120 ft 28 kts 290°
2026-04-27 13:17 32.18059 34.83343 163 ft 62 kts 296°
2026-04-27 13:17 32.18216 34.82853 284 ft 66 kts 300°
2026-04-27 13:17 32.18602 34.82859 413 ft 65 kts 23°
2026-04-27 13:18 32.18937 34.82963 590 ft 57 kts
2026-04-27 13:18 32.19185 34.83055 695 ft 59 kts 23°
2026-04-27 13:18 32.19264 34.83607 728 ft 95 kts 113°
2026-04-27 13:19 32.18974 34.84367 674 ft 103 kts 108°
2026-04-27 13:19 32.18697 34.85125 799 ft 98 kts 111°
2026-04-27 13:19 32.18074 34.85354 721 ft 109 kts 203°
2026-04-27 13:19 32.17592 34.84926 514 ft 71 kts 279°
2026-04-27 13:20 32.17721 34.84434 345 ft 61 kts 291°
2026-04-27 13:20 32.17866 34.83990 185 ft 55 kts 298°
2026-04-27 13:20 32.17984 34.83597 111 ft 41 kts 298°
2026-04-27 13:20 32.18053 34.83364 101 ft 20 kts 270°
2026-04-27 13:21 32.18025 34.83322 103 ft 0 kts 201°